Time,TemperatureF,DewpointF,PressureIn,WindDirection,WindDirectionDegrees,WindSpeedMPH,WindSpeedGustMPH,Humidity,HourlyPrecipIn,Conditions,Clouds,dailyrainin,SolarRadiationWatts/m^2,SoftwareType,DateUTC
2013-07-10 00:01:00,69.0,69.0,30.13,SSE,158,1.0,2.0,100,0.00,,,0.01,0.000000,,2013-07-10 04:01:00,
2013-07-10 00:10:00,70.0,69.0,30.14,NW,320,2.0,2.0,98,0.00,,,0.01,0.000000,,2013-07-10 04:10:00,
2013-07-10 00:43:00,70.0,69.0,30.14,NW,320,2.0,2.0,98,0.00,,,0.01,0.000000,,2013-07-10 04:43:00,
2013-07-10 00:52:00,70.0,69.0,30.14,NW,320,2.0,2.0,98,0.00,,,0.01,0.000000,,2013-07-10 04:52:00,
2013-07-10 01:02:00,70.0,69.0,30.14,NW,320,2.0,2.0,98,0.00,,,0.01,0.000000,,2013-07-10 05:02:00,
2013-07-10 01:10:00,68.0,68.0,30.13,NW,313,1.0,2.0,100,0.00,,,0.01,0.000000,,2013-07-10 05:10:00,
2013-07-10 01:42:00,68.0,68.0,30.13,NW,313,1.0,2.0,100,0.00,,,0.01,0.000000,,2013-07-10 05:42:00,
2013-07-10 01:53:00,68.0,68.0,30.13,NW,313,1.0,2.0,100,0.00,,,0.01,0.000000,,2013-07-10 05:53:00,
2013-07-10 02:01:00,68.0,68.0,30.13,NW,313,1.0,2.0,100,0.00,,,0.01,0.000000,,2013-07-10 06:01:00,
2013-07-10 02:10:00,69.0,69.0,30.10,SSW,201,2.0,2.0,100,0.00,,,0.01,0.000000,,2013-07-10 06:10:00,
2013-07-10 02:42:00,69.0,69.0,30.10,SSW,201,2.0,2.0,100,0.00,,,0.01,0.000000,,2013-07-10 06:42:00,
2013-07-10 02:52:00,69.0,69.0,30.10,SSW,201,2.0,2.0,100,0.00,,,0.01,0.000000,,2013-07-10 06:52:00,
2013-07-10 03:01:00,69.0,69.0,30.10,SSW,201,2.0,2.0,100,0.00,,,0.01,0.000000,,2013-07-10 07:01:00,
2013-07-10 03:10:00,68.0,68.0,30.06,SE,127,1.0,2.0,100,0.00,,,0.01,0.000000,,2013-07-10 07:10:00,
2013-07-10 03:43:00,68.0,68.0,30.06,SE,127,1.0,2.0,100,0.00,,,0.01,0.000000,,2013-07-10 07:43:00,
2013-07-10 03:53:00,68.0,68.0,30.06,SE,127,1.0,2.0,100,0.00,,,0.01,0.000000,,2013-07-10 07:53:00,
2013-07-10 04:02:00,68.0,68.0,30.06,SE,127,1.0,2.0,100,0.00,,,0.01,0.000000,,2013-07-10 08:02:00,
2013-07-10 04:10:00,67.0,67.0,30.06,ESE,123,1.0,2.0,100,0.01,,,0.02,0.000000,,2013-07-10 08:10:00,
2013-07-10 04:33:00,67.0,67.0,30.06,ESE,123,1.0,2.0,100,0.01,,,0.02,0.000000,,2013-07-10 08:33:00,
2013-07-10 04:42:00,67.0,67.0,30.06,ESE,123,1.0,2.0,100,0.01,,,0.02,0.000000,,2013-07-10 08:42:00,
2013-07-10 04:53:00,67.0,67.0,30.06,ESE,123,1.0,2.0,100,0.01,,,0.02,0.000000,,2013-07-10 08:53:00,
2013-07-10 05:02:00,67.0,67.0,30.06,ESE,123,1.0,2.0,100,0.01,,,0.02,0.000000,,2013-07-10 09:02:00,
2013-07-10 05:10:00,65.0,65.0,30.07,South,172,1.0,1.0,100,0.00,,,0.02,0.000000,,2013-07-10 09:10:00,
2013-07-10 05:43:00,65.0,65.0,30.07,South,172,1.0,1.0,100,0.00,,,0.02,0.000000,,2013-07-10 09:43:00,
2013-07-10 05:53:00,65.0,65.0,30.07,South,172,1.0,1.0,100,0.00,,,0.02,0.000000,,2013-07-10 09:53:00,
2013-07-10 06:01:00,65.0,65.0,30.07,South,172,1.0,1.0,100,0.00,,,0.02,0.000000,,2013-07-10 10:01:00,
2013-07-10 06:10:00,67.0,67.0,30.08,WNW,285,2.0,2.0,100,0.00,,,0.02,0.000000,,2013-07-10 10:10:00,
2013-07-10 06:51:00,-999.0,-99.9,30.08,WNW,285,2.0,2.0,-999,-99.99,,,-99.99,0.000000,,2013-07-10 10:51:00,
2013-07-10 07:00:00,-999.0,-99.9,30.08,WNW,285,2.0,2.0,-999,-99.99,,,-99.99,0.000000,,2013-07-10 11:00:00,
2013-07-10 09:10:00,71.0,69.0,30.08,South,185,2.0,2.0,93,-99.99,,,0.02,55.000000,,2013-07-10 13:10:00,
2013-07-10 09:52:00,71.0,69.0,30.08,South,185,2.0,2.0,93,-99.99,,,0.02,55.000000,,2013-07-10 13:52:00,
2013-07-10 10:01:00,71.0,69.0,30.08,South,185,2.0,2.0,93,-99.99,,,0.02,55.000000,,2013-07-10 14:01:00,
2013-07-10 10:10:00,78.0,69.0,30.07,ESE,105,3.0,3.0,73,0.00,,,-99.99,238.000000,,2013-07-10 14:10:00,
2013-07-10 11:01:00,78.0,69.0,30.07,ESE,105,3.0,3.0,73,0.00,,,-99.99,238.000000,,2013-07-10 15:01:00,
2013-07-10 12:10:00,80.0,68.0,30.07,NNW,341,2.0,2.0,68,0.00,,,0.01,839.000000,,2013-07-10 16:10:00,
2013-07-10 12:44:00,80.0,68.0,30.07,NNW,341,2.0,2.0,68,0.00,,,0.01,839.000000,,2013-07-10 16:44:00,
2013-07-10 12:53:00,80.0,68.0,30.07,NNW,341,2.0,2.0,68,0.00,,,0.01,839.000000,,2013-07-10 16:53:00,
2013-07-10 13:02:00,80.0,68.0,30.07,NNW,341,2.0,2.0,68,0.00,,,0.01,839.000000,,2013-07-10 17:02:00,
2013-07-10 13:10:00,76.0,67.0,30.06,North,355,4.0,4.0,74,0.00,,,0.01,681.000000,,2013-07-10 17:10:00,
2013-07-10 13:43:00,76.0,67.0,30.06,North,355,4.0,4.0,74,0.00,,,0.01,681.000000,,2013-07-10 17:43:00,
2013-07-10 13:53:00,76.0,67.0,30.06,North,355,4.0,4.0,74,0.00,,,0.01,681.000000,,2013-07-10 17:53:00,
2013-07-10 14:02:00,76.0,67.0,30.06,North,355,4.0,4.0,74,0.00,,,0.01,681.000000,,2013-07-10 18:02:00,
2013-07-10 14:10:00,73.0,68.0,30.04,NNE,16,2.0,3.0,84,0.01,,,0.02,780.000000,,2013-07-10 18:10:00,
2013-07-10 14:44:00,73.0,68.0,30.04,NNE,16,2.0,3.0,84,0.01,,,0.02,780.000000,,2013-07-10 18:44:00,
2013-07-10 14:53:00,73.0,68.0,30.04,NNE,16,2.0,3.0,84,0.01,,,0.02,780.000000,,2013-07-10 18:53:00,
2013-07-10 15:01:00,73.0,68.0,30.04,NNE,16,2.0,3.0,84,0.01,,,0.02,780.000000,,2013-07-10 19:01:00,
2013-07-10 16:10:00,83.0,71.0,29.99,ESE,106,5.0,5.0,68,-99.99,,,0.02,842.000000,,2013-07-10 20:10:00,
2013-07-10 16:52:00,83.0,71.0,29.99,ESE,106,5.0,5.0,68,-99.99,,,0.02,842.000000,,2013-07-10 20:52:00,
2013-07-10 17:01:00,83.0,71.0,29.99,ESE,106,5.0,5.0,68,-99.99,,,0.02,842.000000,,2013-07-10 21:01:00,
2013-07-10 17:10:00,76.0,70.0,29.99,SSW,204,4.0,4.0,81,0.00,,,0.02,876.000000,,2013-07-10 21:10:00,
2013-07-10 17:42:00,76.0,70.0,29.99,SSW,204,4.0,4.0,81,0.00,,,0.02,876.000000,,2013-07-10 21:42:00,
2013-07-10 17:52:00,76.0,70.0,29.99,SSW,204,4.0,4.0,81,0.00,,,0.02,876.000000,,2013-07-10 21:52:00,
2013-07-10 18:01:00,76.0,70.0,29.99,SSW,204,4.0,4.0,81,0.00,,,0.02,876.000000,,2013-07-10 22:01:00,
2013-07-10 18:10:00,70.0,67.0,29.99,SE,125,2.0,3.0,91,0.00,,,0.02,275.000000,,2013-07-10 22:10:00,
2013-07-10 18:43:00,70.0,67.0,29.99,SE,125,2.0,3.0,91,0.00,,,0.02,275.000000,,2013-07-10 22:43:00,
2013-07-10 18:53:00,70.0,67.0,29.99,SE,125,2.0,3.0,91,0.00,,,0.02,275.000000,,2013-07-10 22:53:00,
2013-07-10 19:01:00,70.0,67.0,29.99,SE,125,2.0,3.0,91,0.00,,,0.02,275.000000,,2013-07-10 23:01:00,
2013-07-10 19:10:00,68.0,67.0,29.99,SE,140,2.0,3.0,97,0.02,,,0.04,40.000000,,2013-07-10 23:10:00,
2013-07-10 19:32:00,68.0,67.0,29.99,SE,140,2.0,3.0,97,0.02,,,0.04,40.000000,,2013-07-10 23:32:00,
2013-07-10 19:43:00,68.0,67.0,29.99,SE,140,2.0,3.0,97,0.02,,,0.04,40.000000,,2013-07-10 23:43:00,
2013-07-10 19:44:00,68.0,67.0,29.99,SE,140,2.0,3.0,97,0.02,,,0.04,40.000000,,2013-07-10 23:44:00,
2013-07-10 19:52:00,68.0,67.0,29.99,SE,140,2.0,3.0,97,0.02,,,0.04,40.000000,,2013-07-10 23:52:00,
2013-07-10 20:01:00,68.0,67.0,29.99,SE,140,2.0,3.0,97,0.02,,,0.04,40.000000,,2013-07-11 00:01:00,
2013-07-10 20:10:00,69.0,69.0,30.02,North,7,1.0,2.0,100,0.15,,,0.19,11.000000,,2013-07-11 00:10:00,
2013-07-10 20:43:00,69.0,69.0,30.02,North,7,1.0,2.0,100,0.15,,,0.19,11.000000,,2013-07-11 00:43:00,
2013-07-10 20:52:00,69.0,69.0,30.02,North,7,1.0,2.0,100,0.15,,,0.19,11.000000,,2013-07-11 00:52:00,
2013-07-10 21:01:00,69.0,69.0,30.02,North,7,1.0,2.0,100,0.15,,,0.19,11.000000,,2013-07-11 01:01:00,
2013-07-10 21:10:00,69.0,69.0,30.01,NE,54,2.0,2.0,99,0.02,,,0.21,7.000000,,2013-07-11 01:10:00,
2013-07-10 21:43:00,69.0,69.0,30.01,NE,54,2.0,2.0,99,0.02,,,0.21,7.000000,,2013-07-11 01:43:00,
2013-07-10 21:52:00,69.0,69.0,30.01,NE,54,2.0,2.0,99,0.02,,,0.21,7.000000,,2013-07-11 01:52:00,
2013-07-10 22:02:00,69.0,69.0,30.01,NE,54,2.0,2.0,99,0.02,,,0.21,7.000000,,2013-07-11 02:02:00,
2013-07-10 22:10:00,66.0,66.0,30.00,SE,138,2.0,2.0,100,0.01,,,0.22,1.000000,,2013-07-11 02:10:00,
2013-07-10 22:44:00,66.0,66.0,30.00,SE,138,2.0,2.0,100,0.01,,,0.22,1.000000,,2013-07-11 02:44:00,
2013-07-10 22:53:00,66.0,66.0,30.00,SE,138,2.0,2.0,100,0.01,,,0.22,1.000000,,2013-07-11 02:53:00,
2013-07-10 23:02:00,66.0,66.0,30.00,SE,138,2.0,2.0,100,0.01,,,0.22,1.000000,,2013-07-11 03:02:00,
2013-07-10 23:10:00,68.0,68.0,30.01,WSW,244,2.0,2.0,100,0.00,,,0.22,0.000000,,2013-07-11 03:10:00,
2013-07-10 23:42:00,68.0,68.0,30.01,WSW,244,2.0,2.0,100,0.00,,,0.22,0.000000,,2013-07-11 03:42:00,
2013-07-10 23:53:00,68.0,68.0,30.01,WSW,244,2.0,2.0,100,0.00,,,0.22,0.000000,,2013-07-11 03:53:00,